Time;durP1;ratioP1;P1;durP2;ratioP2;P2;SDS_P1;SDS_P2;PMS_P1;PMS_P2;Temp;Humidity;BMP_temperature;BMP_pressure;BME280_temperature;BME280_humidity;BME280_pressure;Samples;Min_cycle;Max_cycle;Signal;HPM_P1;HPM_P2
2023/01/21 00:01:37;;;;;;;1999.90;999.90;;;-0.80;99.90;;;;;;6697958;88;20211;-76
2023/01/21 00:11:38;;;;;;;1999.90;999.90;;;-0.90;99.90;;;;;;6698018;88;20203;-76
2023/01/21 00:21:38;;;;;;;1999.90;999.90;;;-0.80;99.90;;;;;;6713812;88;20171;-75
2023/01/21 00:31:39;;;;;;;1999.90;999.90;;;-0.80;99.90;;;;;;6720724;88;20273;-75
2023/01/21 00:41:39;;;;;;;1999.90;999.90;;;-0.70;99.90;;;;;;6706120;88;20217;-75
2023/01/21 00:51:40;;;;;;;1999.90;999.90;;;-0.90;99.90;;;;;;6693940;88;20592;-75
2023/01/21 01:01:41;;;;;;;1999.90;999.90;;;-1.00;99.90;;;;;;6696654;88;20707;-76
2023/01/21 01:11:41;;;;;;;1999.90;999.90;;;-1.10;99.90;;;;;;6696737;88;20642;-75
2023/01/21 01:21:42;;;;;;;1999.90;999.90;;;-1.30;99.90;;;;;;6698070;88;20661;-76
2023/01/21 01:31:43;;;;;;;1999.90;999.90;;;-1.30;99.90;;;;;;6698238;88;20183;-76
2023/01/21 01:41:43;;;;;;;1999.90;999.90;;;-1.40;99.90;;;;;;6704213;88;20170;-76
2023/01/21 01:51:49;;;;;;;1999.90;999.90;;;-1.20;99.90;;;;;;6698694;88;20342;-76
2023/01/21 02:01:49;;;;;;;1999.90;999.90;;;-1.20;99.90;;;;;;6701737;88;20523;-75
2023/01/21 02:11:50;;;;;;;1999.90;999.90;;;-1.30;99.90;;;;;;6700725;88;20662;-75
2023/01/21 02:21:54;;;;;;;1999.90;999.90;;;-1.20;99.90;;;;;;6686503;88;20778;-74
2023/01/21 02:32:09;;;;;;;1999.90;999.90;;;-1.30;99.90;;;;;;6688212;88;20659;-75
2023/01/21 02:42:45;;;;;;;1999.90;999.90;;;-1.40;99.90;;;;;;6687078;88;20297;-75
2023/01/21 02:52:54;;;;;;;1999.90;999.90;;;-1.50;99.90;;;;;;6687151;88;20217;-76
2023/01/21 03:03:18;;;;;;;1999.90;999.90;;;-1.40;99.90;;;;;;6687673;88;20204;-76
2023/01/21 03:23:28;;;;;;;1999.90;999.90;;;-1.60;99.90;;;;;;6766586;88;20194;-77
2023/01/21 03:33:34;;;;;;;1999.90;999.90;;;-1.80;99.90;;;;;;6757639;88;20188;-78
2023/01/21 03:43:34;;;;;;;1999.90;999.90;;;-1.90;99.90;;;;;;6761949;88;20202;-78
2023/01/21 03:53:35;;;;;;;1999.90;999.90;;;-2.10;99.90;;;;;;6765516;88;20194;-78
2023/01/21 04:03:35;;;;;;;1999.90;999.90;;;-2.20;99.90;;;;;;6785504;87;20226;-78
2023/01/21 04:13:36;;;;;;;1999.90;999.90;;;-2.20;99.90;;;;;;6779586;87;20191;-78
2023/01/21 04:23:37;;;;;;;1999.90;999.90;;;-2.10;99.90;;;;;;6744205;88;20210;-78
2023/01/21 04:33:37;;;;;;;1999.90;999.90;;;-2.30;99.90;;;;;;6743704;88;20200;-77
2023/01/21 04:43:38;;;;;;;1999.90;999.90;;;-2.30;99.90;;;;;;6743072;88;20651;-77
2023/01/21 04:53:38;;;;;;;1999.90;999.90;;;-2.20;99.90;;;;;;6742915;88;21444;-77
2023/01/21 05:03:39;;;;;;;1999.90;999.90;;;-2.30;99.90;;;;;;6745350;88;20543;-77
2023/01/21 05:13:39;;;;;;;1999.90;999.90;;;-2.40;99.90;;;;;;6745972;88;20239;-77
2023/01/21 05:23:40;;;;;;;1999.90;999.90;;;-2.30;99.90;;;;;;6757324;88;20697;-79
2023/01/21 05:33:42;;;;;;;1999.90;999.90;;;-2.70;99.90;;;;;;6744187;88;20376;-77
2023/01/21 05:43:43;;;;;;;1999.90;999.90;;;-2.80;99.90;;;;;;6744385;88;20181;-77
2023/01/21 05:53:43;;;;;;;1999.90;999.90;;;-2.90;99.90;;;;;;6743579;88;20709;-78
2023/01/21 06:03:44;;;;;;;1999.90;999.90;;;-3.00;99.90;;;;;;6748865;88;20196;-78
2023/01/21 06:13:45;;;;;;;1999.90;999.90;;;-2.90;99.90;;;;;;6744432;88;21061;-78
2023/01/21 06:23:45;;;;;;;1999.90;999.90;;;-3.00;99.90;;;;;;6743785;88;20228;-78
2023/01/21 06:33:46;;;;;;;1999.90;999.90;;;-3.00;99.90;;;;;;6743517;88;20689;-78
2023/01/21 06:43:46;;;;;;;1999.90;999.90;;;-3.10;99.90;;;;;;6743591;88;20216;-78
2023/01/21 06:53:47;;;;;;;1999.90;999.90;;;-3.10;99.90;;;;;;6743855;88;20199;-78
2023/01/21 07:03:47;;;;;;;1999.90;999.90;;;-3.10;99.90;;;;;;6743879;88;20203;-78
2023/01/21 07:13:48;;;;;;;1999.90;999.90;;;-3.20;99.90;;;;;;6746618;88;20196;-78
2023/01/21 07:23:54;;;;;;;1999.90;999.90;;;-3.30;99.90;;;;;;6745485;88;20215;-77
2023/01/21 07:33:54;;;;;;;1999.90;999.90;;;-3.30;99.90;;;;;;6760505;87;20325;-79
2023/01/21 07:43:55;;;;;;;1999.90;999.90;;;-3.10;99.90;;;;;;6770017;87;20200;-79
2023/01/21 07:53:56;;;;;;;1999.90;999.90;;;-3.20;99.90;;;;;;6752182;88;20176;-79
2023/01/21 08:03:57;;;;;;;1999.90;999.90;;;-3.30;99.90;;;;;;6741745;88;20514;-78
2023/01/21 08:13:57;;;;;;;1999.90;999.90;;;-3.20;99.90;;;;;;6737874;88;20222;-78
2023/01/21 08:23:58;;;;;;;1999.90;999.90;;;-3.10;99.90;;;;;;6740447;88;20192;-76
2023/01/21 08:33:58;;;;;;;1999.90;999.90;;;-3.00;99.90;;;;;;6744732;88;20192;-76
2023/01/21 08:43:59;;;;;;;1999.90;999.90;;;-2.70;99.90;;;;;;6740528;88;20971;-75
2023/01/21 08:54:00;;;;;;;1999.90;999.90;;;-2.30;99.90;;;;;;6739941;88;20186;-76
2023/01/21 09:04:01;;;;;;;1999.90;999.90;;;-2.50;99.90;;;;;;6737979;88;20200;-76
2023/01/21 09:24:05;;;;;;;1999.90;999.90;;;-1.80;99.90;;;;;;6716627;88;20206;-75
2023/01/21 09:34:05;;;;;;;1999.90;999.90;;;-1.50;99.90;;;;;;6707312;88;20220;-76
2023/01/21 09:44:23;;;;;;;1999.90;999.90;;;-0.70;99.90;;;;;;6704975;88;20182;-77
2023/01/21 09:54:27;;;;;;;1999.90;999.90;;;-0.40;99.90;;;;;;6712492;88;20542;-79
2023/01/21 10:04:39;;;;;;;1999.90;999.90;;;0.60;99.90;;;;;;6710464;88;20709;-77
2023/01/21 10:14:57;;;;;;;1999.90;999.90;;;1.00;99.90;;;;;;6708285;88;20217;-77
2023/01/21 10:25:21;;;;;;;1999.90;999.90;;;1.60;99.90;;;;;;6703351;88;20279;-77
2023/01/21 10:35:59;;;;;;;1999.90;999.90;;;2.40;99.90;;;;;;6714909;88;20249;-77
2023/01/21 10:46:27;;;;;;;1999.90;999.90;;;2.70;99.90;;;;;;6706543;88;20250;-77
2023/01/21 10:57:19;;;;;;;1999.90;999.90;;;3.60;99.90;;;;;;6704165;88;20401;-77
2023/01/21 11:07:21;;;;;;;1999.90;999.90;;;3.00;99.90;;;;;;6701507;88;20218;-77
2023/01/21 11:17:33;;;;;;;1999.90;999.90;;;2.70;99.90;;;;;;6709447;88;20246;-76
2023/01/21 11:27:37;;;;;;;1999.90;999.90;;;1.90;99.90;;;;;;6720932;88;20726;-77
2023/01/21 11:37:37;;;;;;;1999.90;999.90;;;1.70;99.90;;;;;;6723637;88;20631;-76
2023/01/21 11:47:51;;;;;;;1999.90;999.90;;;1.20;99.90;;;;;;6722776;88;20189;-76
2023/01/21 11:57:55;;;;;;;1999.90;999.90;;;0.90;99.90;;;;;;6723736;88;20847;-76
2023/01/21 12:07:57;;;;;;;1999.90;999.90;;;0.70;99.90;;;;;;6718937;88;20234;-76
2023/01/21 12:22:30;;;;;;;1999.90;999.90;;;0.90;99.90;;;;;;6780185;86;20171;-77
2023/01/21 12:32:49;;;;;;;1999.90;999.90;;;1.00;99.90;;;;;;6775336;87;20221;-75
2023/01/21 12:42:59;;;;;;;1999.90;999.90;;;0.90;99.90;;;;;;6769230;87;20252;-76
2023/01/21 12:53:06;;;;;;;1999.90;999.90;;;0.90;99.90;;;;;;6767909;87;20217;-77
2023/01/21 13:03:41;;;;;;;1999.90;999.90;;;1.00;99.90;;;;;;6767905;87;20191;-77
2023/01/21 13:14:04;;;;;;;1999.90;999.90;;;0.70;99.90;;;;;;6762696;87;20721;-76
2023/01/21 13:24:19;;;;;;;1999.90;999.90;;;0.70;99.90;;;;;;6749202;87;20335;-74
2023/01/21 13:34:35;;;;;;;1999.90;999.90;;;0.50;99.90;;;;;;6735813;88;20204;-75
2023/01/21 13:45:06;;;;;;;1999.90;999.90;;;0.50;99.90;;;;;;6735257;88;20238;-76
2023/01/21 13:55:24;;;;;;;1999.90;999.90;;;0.50;99.90;;;;;;6737710;88;20251;-77
2023/01/21 14:05:31;;;;;;;1999.90;999.90;;;0.70;99.90;;;;;;6734646;88;20185;-76
2023/01/21 14:15:50;;;;;;;;;;;0.80;99.90;;;;;;6744294;88;20322;-74
2023/01/21 14:26:10;;;;;;;1999.90;999.90;;;0.70;99.90;;;;;;6748419;87;20040;-77
2023/01/21 14:36:46;;;;;;;1999.90;999.90;;;0.70;99.90;;;;;;6751126;88;20210;-76
2023/01/21 14:47:16;;;;;;;1999.90;999.90;;;0.90;99.90;;;;;;6739254;87;20196;-76
2023/01/21 14:57:33;;;;;;;1999.90;999.90;;;1.10;99.90;;;;;;6748540;87;20193;-76
2023/01/21 15:07:38;;;;;;;1999.90;999.90;;;1.40;99.90;;;;;;6749491;88;20197;-76
2023/01/21 15:17:51;;;;;;;1999.90;999.90;;;1.50;99.90;;;;;;6743282;76;20759;-75
2023/01/21 15:28:24;;;;;;;1999.90;999.90;;;1.60;99.90;;;;;;6719737;88;20205;-74
2023/01/21 15:38:25;;;;;;;1999.90;999.90;;;1.50;99.90;;;;;;6715096;88;20190;-75
2023/01/21 15:48:47;;;;;;;1999.90;999.90;;;1.60;99.90;;;;;;6712454;88;20307;-75
2023/01/21 15:58:59;;;;;;;1999.90;999.90;;;1.40;99.90;;;;;;6713892;88;20201;-76
2023/01/21 16:09:09;;;;;;;1999.90;999.90;;;1.40;99.90;;;;;;6711028;88;20195;-75
2023/01/21 16:19:15;;;;;;;1999.90;999.90;;;1.20;99.90;;;;;;6709435;88;20822;-76
2023/01/21 16:29:16;;;;;;;;;;;1.20;99.90;;;;;;6712553;88;20166;-74
2023/01/21 16:39:18;;;;;;;1999.90;999.90;;;1.20;99.90;;;;;;6715537;88;20067;-75
2023/01/21 16:49:19;;;;;;;1999.90;999.90;;;1.00;99.90;;;;;;6712721;88;20724;-75
2023/01/21 16:59:36;;;;;;;1999.90;999.90;;;1.00;99.90;;;;;;6717966;88;20267;-78
2023/01/21 17:09:36;;;;;;;1999.90;999.90;;;1.00;99.90;;;;;;6725475;88;20215;-80
2023/01/21 17:19:41;;;;;;;1999.90;999.90;;;1.00;99.90;;;;;;6736708;88;20185;-80
2023/01/21 17:29:41;;;;;;;1999.90;999.90;;;1.00;99.90;;;;;;6736247;88;20182;-79
2023/01/21 17:39:45;;;;;;;1999.90;999.90;;;1.00;99.90;;;;;;6733625;88;20189;-78
2023/01/21 17:49:46;;;;;;;1999.90;999.90;;;1.10;99.90;;;;;;6733204;88;20232;-78
2023/01/21 17:59:46;;;;;;;1999.90;999.90;;;1.10;99.90;;;;;;6725296;88;20179;-77
2023/01/21 18:09:47;;;;;;;1999.90;999.90;;;0.90;99.90;;;;;;6722961;88;20206;-78
2023/01/21 18:19:48;;;;;;;1999.90;999.90;;;0.90;99.90;;;;;;6726342;88;20344;-79
2023/01/21 18:29:50;;;;;;;1999.90;999.90;;;0.80;99.90;;;;;;6727389;88;20174;-77
2023/01/21 18:39:50;;;;;;;1999.90;999.90;;;0.80;99.90;;;;;;6726382;88;20327;-78
2023/01/21 18:49:51;;;;;;;1999.90;999.90;;;0.70;99.90;;;;;;6723926;88;20227;-80
2023/01/21 18:59:51;;;;;;;1999.90;999.90;;;0.70;99.90;;;;;;6720972;88;20275;-79
2023/01/21 19:09:52;;;;;;;1999.90;999.90;;;0.70;99.90;;;;;;6727474;88;20219;-78
2023/01/21 19:19:53;;;;;;;1999.90;999.90;;;0.60;99.90;;;;;;6730824;88;20242;-78
2023/01/21 19:29:54;;;;;;;1999.90;999.90;;;0.70;99.90;;;;;;6734425;88;20201;-78
2023/01/21 19:39:54;;;;;;;1999.90;999.90;;;0.80;99.90;;;;;;6727924;88;20279;-79
2023/01/21 19:49:55;;;;;;;1999.90;999.90;;;0.80;99.90;;;;;;6720901;88;20219;-78
2023/01/21 19:59:57;;;;;;;1999.90;999.90;;;0.70;99.90;;;;;;6725595;88;20218;-78
2023/01/21 20:09:57;;;;;;;1999.90;999.90;;;0.60;99.90;;;;;;6725141;88;20216;-78
2023/01/21 20:19:58;;;;;;;1999.90;999.90;;;0.50;99.90;;;;;;6726111;88;20280;-78
2023/01/21 20:29:58;;;;;;;1999.90;999.90;;;0.40;99.90;;;;;;6725751;88;20228;-78
2023/01/21 20:39:59;;;;;;;1999.90;999.90;;;0.30;99.90;;;;;;6723660;88;20218;-78
2023/01/21 20:50:00;;;;;;;1999.90;999.90;;;0.20;99.90;;;;;;6724447;88;20789;-78
2023/01/21 21:00:01;;;;;;;1999.90;999.90;;;0.40;99.90;;;;;;6728951;88;20208;-77
2023/01/21 21:10:02;;;;;;;1999.90;999.90;;;0.50;99.90;;;;;;6729571;88;20203;-78
2023/01/21 21:30:10;;;;;;;1999.90;999.90;;;0.60;99.90;;;;;;6737882;88;20234;-77
2023/01/21 21:40:11;;;;;;;1999.90;999.90;;;0.50;99.90;;;;;;6734737;88;20297;-77
2023/01/21 21:50:12;;;;;;;1999.90;999.90;;;0.50;99.90;;;;;;6732657;88;20617;-77
2023/01/21 22:00:13;;;;;;;1999.90;999.90;;;0.60;99.90;;;;;;6736273;88;20203;-77
2023/01/21 22:10:13;;;;;;;1999.90;999.90;;;0.60;99.90;;;;;;6724201;88;20198;-77
2023/01/21 22:20:14;;;;;;;1999.90;999.90;;;0.60;99.90;;;;;;6724025;88;20699;-76
2023/01/21 22:30:15;;;;;;;1999.90;999.90;;;0.70;99.90;;;;;;6718112;88;20534;-77
2023/01/21 22:40:15;;;;;;;1999.90;999.90;;;0.60;99.90;;;;;;6724478;88;20287;-77
2023/01/21 22:50:16;;;;;;;1999.90;999.90;;;0.60;99.90;;;;;;6731014;88;20237;-76
2023/01/21 23:00:36;;;;;;;1999.90;999.90;;;0.80;99.90;;;;;;6723507;88;20193;-77
2023/01/21 23:10:40;;;;;;;1999.90;999.90;;;0.70;99.90;;;;;;6724072;88;20262;-76
2023/01/21 23:20:42;;;;;;;1999.90;999.90;;;0.60;99.90;;;;;;6719605;88;20197;-76
2023/01/21 23:30:42;;;;;;;1999.90;999.90;;;0.60;99.90;;;;;;6725930;88;20662;-77
2023/01/21 23:40:43;;;;;;;1999.90;999.90;;;0.70;99.90;;;;;;6729923;88;20205;-76
2023/01/21 23:50:43;;;;;;;1999.90;999.90;;;0.80;99.90;;;;;;6727812;88;20672;-76
